createdAt,value
2022-09-02T00:00:18.004Z,14
2022-09-02T00:05:17.745Z,13
2022-09-02T00:10:18.054Z,14
2022-09-02T00:15:17.843Z,14
2022-09-02T00:20:17.939Z,16
2022-09-02T00:25:17.884Z,15
2022-09-02T00:30:17.889Z,15
2022-09-02T00:35:17.938Z,15
2022-09-02T00:40:17.988Z,17
2022-09-02T00:45:18.054Z,17
2022-09-02T00:55:18.770Z,16
2022-09-02T01:00:17.914Z,15
2022-09-02T01:05:18.131Z,16
2022-09-02T01:10:18.044Z,15
2022-09-02T01:15:17.986Z,15
2022-09-02T01:20:17.859Z,15
2022-09-02T01:25:18.142Z,14
2022-09-02T01:30:17.998Z,14
2022-09-02T01:35:18.299Z,15
2022-09-02T01:40:17.915Z,16
2022-09-02T01:45:18.163Z,17
2022-09-02T01:50:17.859Z,16
2022-09-02T01:55:17.983Z,16
2022-09-02T02:00:18.345Z,17
2022-09-02T02:05:18.112Z,19
2022-09-02T02:10:17.961Z,18
2022-09-02T02:15:18.072Z,17
2022-09-02T02:20:18.212Z,17
2022-09-02T02:25:18.109Z,17
2022-09-02T02:30:18.211Z,18
2022-09-02T02:35:18.182Z,18
2022-09-02T02:40:18.133Z,17
2022-09-02T02:45:18.231Z,16
2022-09-02T02:50:19.403Z,18
2022-09-02T02:55:18.055Z,18
2022-09-02T03:00:18.117Z,17
2022-09-02T03:05:18.591Z,17
2022-09-02T03:10:18.058Z,18
2022-09-02T03:15:18.573Z,18
2022-09-02T03:20:18.217Z,18
2022-09-02T03:25:18.417Z,17
2022-09-02T03:30:18.203Z,17
2022-09-02T03:35:18.225Z,17
2022-09-02T03:40:18.134Z,16
2022-09-02T03:45:16.497Z,17
2022-09-02T03:50:16.189Z,16
2022-09-02T03:55:16.237Z,17
2022-09-02T04:00:17.433Z,16
2022-09-02T04:05:17.372Z,17
2022-09-02T04:10:17.356Z,15
2022-09-02T04:15:17.414Z,16
2022-09-02T04:20:17.264Z,16
2022-09-02T04:25:17.379Z,15
2022-09-02T04:30:17.357Z,18
2022-09-02T04:35:17.422Z,16
2022-09-02T04:40:17.218Z,18
2022-09-02T04:45:17.393Z,17
2022-09-02T04:50:18.046Z,16
2022-09-02T04:55:17.761Z,17
2022-09-02T05:00:17.268Z,17
2022-09-02T05:05:17.349Z,15
2022-09-02T05:10:17.427Z,14
2022-09-02T05:15:21.088Z,15
2022-09-02T05:20:17.324Z,13
2022-09-02T05:25:17.373Z,14
2022-09-02T05:30:17.369Z,13
2022-09-02T05:35:17.484Z,14
2022-09-02T05:40:17.451Z,14
2022-09-02T05:45:18.053Z,17
2022-09-02T05:50:17.380Z,16
2022-09-02T05:55:17.511Z,17
2022-09-02T06:00:18.157Z,16
2022-09-02T06:05:17.528Z,17
2022-09-02T06:10:17.406Z,16
2022-09-02T06:15:17.885Z,15
2022-09-02T06:20:17.795Z,15
2022-09-02T06:25:17.618Z,14
2022-09-02T06:30:17.894Z,14
2022-09-02T06:35:17.698Z,16
2022-09-02T06:40:17.584Z,14
2022-09-02T06:45:17.696Z,15
2022-09-02T06:50:18.877Z,17
2022-09-02T06:55:17.600Z,16
2022-09-02T07:00:17.718Z,17
2022-09-02T07:05:17.597Z,15
2022-09-02T07:10:17.820Z,16
2022-09-02T07:15:17.668Z,15
2022-09-02T07:20:17.513Z,14
2022-09-02T07:25:17.973Z,14
2022-09-02T07:30:17.657Z,14
2022-09-02T07:35:17.874Z,13
2022-09-02T07:40:19.637Z,13
2022-09-02T07:45:17.880Z,12
2022-09-02T07:50:20.199Z,13
2022-09-02T07:55:17.676Z,12
2022-09-02T08:00:17.913Z,13
2022-09-02T08:05:17.754Z,14
2022-09-02T08:10:17.609Z,14
2022-09-02T08:15:17.899Z,15
2022-09-02T08:20:17.883Z,14
2022-09-02T08:25:17.826Z,14
2022-09-02T08:30:17.724Z,15
2022-09-02T08:35:17.927Z,15
2022-09-02T08:40:17.863Z,13
2022-09-02T08:45:18.053Z,15
2022-09-02T08:50:18.604Z,16
2022-09-02T08:55:17.888Z,16
2022-09-02T09:00:17.830Z,15
2022-09-02T09:05:17.737Z,15
2022-09-02T09:10:17.946Z,16
2022-09-02T09:15:18.021Z,15
2022-09-02T09:20:17.993Z,16
2022-09-02T09:25:18.210Z,16
2022-09-02T09:30:18.427Z,16
2022-09-02T09:35:17.895Z,15
2022-09-02T09:40:18.378Z,14
2022-09-02T09:45:18.019Z,15
2022-09-02T09:50:18.076Z,18
2022-09-02T09:55:22.728Z,16
2022-09-02T10:00:17.946Z,16
2022-09-02T10:05:18.065Z,15
2022-09-02T10:10:17.913Z,17
2022-09-02T10:15:18.247Z,18
2022-09-02T10:20:17.945Z,18
2022-09-02T10:25:18.069Z,17
2022-09-02T10:30:18.036Z,17
2022-09-02T10:35:18.079Z,15
2022-09-02T10:40:18.098Z,15
2022-09-02T10:45:18.296Z,16
2022-09-02T10:50:18.871Z,15
2022-09-02T10:55:18.395Z,15
2022-09-02T11:00:18.103Z,16
2022-09-02T11:05:18.122Z,15
2022-09-02T11:10:18.038Z,15
2022-09-02T11:15:18.122Z,14
2022-09-02T11:20:18.179Z,14
2022-09-02T11:25:18.358Z,16
2022-09-02T11:30:18.147Z,15
2022-09-02T11:35:18.127Z,15
2022-09-02T11:40:33.627Z,16
2022-09-02T11:45:19.280Z,16
2022-09-02T11:50:18.126Z,14
2022-09-02T11:55:18.154Z,13
2022-09-02T12:00:18.783Z,14
2022-09-02T12:05:16.405Z,13
2022-09-02T12:10:16.219Z,12
2022-09-02T12:15:16.309Z,12
2022-09-02T12:20:16.191Z,12
2022-09-02T12:25:16.452Z,11
2022-09-02T12:30:16.615Z,13
2022-09-02T12:35:16.467Z,12
2022-09-02T12:40:16.301Z,13
2022-09-02T12:45:16.676Z,10
2022-09-02T12:50:17.074Z,11
2022-09-02T12:55:16.398Z,10
2022-09-02T13:00:16.709Z,10
2022-09-02T13:05:16.570Z,11
2022-09-02T13:10:16.474Z,10
2022-09-02T13:15:20.140Z,9
2022-09-02T13:20:16.418Z,9
2022-09-02T13:25:16.485Z,10
2022-09-02T13:30:16.417Z,8
2022-09-02T13:35:16.488Z,9
2022-09-02T13:40:16.599Z,10
2022-09-02T13:45:16.571Z,10
2022-09-02T13:50:16.312Z,10
2022-09-02T13:55:16.469Z,9
2022-09-02T14:00:16.600Z,9
2022-09-02T14:05:16.485Z,9
2022-09-02T14:10:16.654Z,10
2022-09-02T14:15:16.725Z,8
2022-09-02T14:20:16.475Z,7
2022-09-02T14:25:16.478Z,9
2022-09-02T14:30:16.677Z,7
2022-09-02T14:35:16.518Z,7
2022-09-02T14:40:16.484Z,9
2022-09-02T14:45:16.557Z,8
2022-09-02T14:50:17.682Z,7
2022-09-02T14:55:16.683Z,8
2022-09-02T15:00:16.568Z,7
2022-09-02T15:05:16.737Z,8
2022-09-02T15:10:16.538Z,7
2022-09-02T15:15:16.990Z,7
2022-09-02T15:20:16.659Z,6
2022-09-02T15:25:16.718Z,7
2022-09-02T15:30:16.676Z,6
2022-09-02T15:35:16.868Z,5
2022-09-02T15:40:16.672Z,6
2022-09-02T15:45:16.897Z,5
2022-09-02T15:50:17.108Z,5
2022-09-02T15:55:16.766Z,5
2022-09-02T16:00:17.052Z,4
2022-09-02T16:05:16.744Z,5
2022-09-02T16:10:16.689Z,5
2022-09-02T16:15:16.804Z,5
2022-09-02T16:20:20.977Z,6
2022-09-02T16:25:16.755Z,7
2022-09-02T16:30:17.452Z,5
2022-09-02T16:35:17.078Z,6
2022-09-02T16:40:16.715Z,6
2022-09-02T16:45:16.833Z,6
2022-09-02T16:50:17.534Z,6
2022-09-02T16:55:16.817Z,5
2022-09-02T17:00:16.888Z,7
2022-09-02T17:05:16.911Z,6
2022-09-02T17:10:17.000Z,6
2022-09-02T17:15:17.138Z,6
2022-09-02T17:20:16.682Z,6
2022-09-02T17:25:16.990Z,7
2022-09-02T17:30:16.983Z,5
2022-09-02T17:35:16.915Z,5
2022-09-02T17:40:17.039Z,6
2022-09-02T17:45:17.087Z,6
2022-09-02T17:50:18.114Z,5
2022-09-02T17:55:16.908Z,5
2022-09-02T18:00:17.107Z,6
2022-09-02T18:05:17.022Z,6
2022-09-02T18:10:17.106Z,6
2022-09-02T18:15:17.151Z,5
2022-09-02T18:20:17.142Z,5
2022-09-02T18:25:16.987Z,6
2022-09-02T18:30:17.170Z,5
2022-09-02T18:35:17.022Z,5
2022-09-02T18:40:17.192Z,5
2022-09-02T18:45:21.612Z,5
2022-09-02T18:50:44.971Z,5
2022-09-02T18:55:17.099Z,5
2022-09-02T19:00:17.082Z,4
2022-09-02T19:05:17.074Z,4
2022-09-02T19:10:17.039Z,4
2022-09-02T19:15:17.452Z,4
2022-09-02T19:20:16.979Z,4
2022-09-02T19:25:17.240Z,4
2022-09-02T19:30:17.160Z,4
2022-09-02T19:35:17.368Z,4
2022-09-02T19:40:17.077Z,5
2022-09-02T19:45:17.232Z,5
2022-09-02T19:50:17.108Z,4
2022-09-02T19:55:17.205Z,5
2022-09-02T20:00:17.620Z,5
2022-09-02T20:05:17.193Z,5
2022-09-02T20:10:20.310Z,5
2022-09-02T20:15:17.368Z,7
2022-09-02T20:20:17.293Z,7
2022-09-02T20:25:17.238Z,6
2022-09-02T20:30:17.332Z,7
2022-09-02T20:35:17.487Z,7
2022-09-02T20:40:17.303Z,6
2022-09-02T20:45:17.393Z,6
2022-09-02T20:50:18.088Z,6
2022-09-02T20:55:17.375Z,6
2022-09-02T21:00:17.290Z,5
2022-09-02T21:05:22.108Z,7
2022-09-02T21:10:17.436Z,6
2022-09-02T21:15:17.453Z,8
2022-09-02T21:20:17.285Z,7
2022-09-02T21:25:17.543Z,8
2022-09-02T21:30:17.365Z,7
2022-09-02T21:35:17.364Z,8
2022-09-02T21:40:18.012Z,7
2022-09-02T21:45:18.202Z,6
2022-09-02T21:50:21.888Z,7
2022-09-02T21:55:17.471Z,6
2022-09-02T22:00:17.472Z,6
2022-09-02T22:05:17.435Z,6
2022-09-02T22:10:17.418Z,5
2022-09-02T22:15:17.798Z,7
2022-09-02T22:20:17.573Z,7
2022-09-02T22:25:17.462Z,6
2022-09-02T22:30:17.411Z,7
2022-09-02T22:35:17.445Z,7
2022-09-02T22:40:17.547Z,6
2022-09-02T22:45:17.810Z,6
2022-09-02T22:50:18.806Z,7
2022-09-02T22:55:17.502Z,7
2022-09-02T23:00:17.626Z,7
2022-09-02T23:05:17.494Z,9
2022-09-02T23:10:17.502Z,8
2022-09-02T23:15:17.760Z,10
2022-09-02T23:20:17.505Z,11
2022-09-02T23:25:17.700Z,10
2022-09-02T23:30:17.622Z,10
2022-09-02T23:35:17.603Z,10
2022-09-02T23:40:17.711Z,9
2022-09-02T23:45:17.709Z,9
2022-09-02T23:50:17.770Z,9
2022-09-02T23:55:17.630Z,9
